Weather observations for the past three days for
Shishmaref, Shishmaref Airport
Imperial (Metric)
Date Time (akdt) Wind (mph) Vis. (mi.) Weather Sky Cond. Temperature (ºF) Relative Humidity Wind Chill (°F) Heat Index (°F) Pressure Precipitation (in)
Air Dwpt 6 hour altimeter (in) sea level (mb) 1 hr 3 hr 6 hr
Max. Min.
08 02:56 W 3 10.00 Overcast OVC009 21 18 88% 30.18 1022.2
08 01:56 NW 7 10.00 Overcast OVC011 21.9 18 85% 14 30.19 1022.3
08 00:56 NW 3 10.00 Overcast OVC011 21.9 18 85% 30.19 1022.5
07 23:56 Calm 10.00 Overcast OVC011 21.9 18 85% 30.19 1022.5
07 22:56 Calm 10.00 Overcast OVC009 23 19 85% 30.2 1022.7
07 21:56 NW 5 10.00 Overcast OVC009 23 19 27 23 85% 18 30.2 1022.6
07 20:56 NW 6 10.00 Overcast OVC009 23 18 81% 17 30.2 1022.6
07 19:56 N 5 10.00 Overcast OVC009 24.1 19 81% 19 30.2 1022.7
07 18:56 N 7 10.00 Overcast OVC009 25 19 78% 18 30.2 1022.8
07 17:56 N 5 10.00 Overcast OVC009 26.1 19.9 78% 21 30.21 1023.0
07 16:56 N 9 10.00 Overcast OVC011 26.1 19.9 78% 18 30.21 1023.0
07 15:56 N 7 10.00 Overcast OVC009 25 19.9 25 19.9 81% 18 30.22 1023.2
07 14:56 NW 10 10.00 Overcast OVC009 21.9 19 89% 12 30.22 1023.3
07 13:56 NW 10 10.00 Overcast OVC005 21.9 19 89% 12 30.21 1023.2
07 12:56 NW 12 10.00 Overcast OVC005 21.9 19 89% 11 30.21 1023.0
07 11:56 NW 5 10.00 Overcast OVC007 21 18 88% 15 30.21 1023.2
07 10:56 NW 8 10.00 Overcast OVC005 19.9 18 92% 11 30.22 1023.2
07 09:56 NW 9 10.00 Overcast OVC005 19.9 18 19.9 18 92% 10 30.21 1023.1
07 08:56 NW 12 10.00 Overcast OVC007 19.9 18 92% 9 30.21 1023.2
07 07:56 NW 9 10.00 Overcast OVC007 19.9 18 92% 10 30.21 1023.0
07 06:56 NW 9 10.00 Overcast OVC005 19 18 96% 9 30.21 1022.9
07 05:56 W 10 10.00 Overcast OVC005 19 17.1 92% 8 30.21 1023.0
07 04:56 NW 9 10.00 Overcast OVC005 18 16 92% 8 30.21 1023.1
07 03:56 NW 10 10.00 Overcast OVC007 19 17.1 21 19 92% 8 30.21 1022.9
07 02:56 NW 10 10.00 Overcast OVC009 19.9 17.1 89% 9 30.2 1022.7
07 01:56 NW 9 10.00 Overcast OVC011 21 17.1 85% 11 30.2 1022.6
07 00:56 N 9 10.00 Overcast OVC011 21 17.1 85% 11 30.19 1022.3
06 23:56 NW 12 10.00 Overcast OVC013 21 17.1 85% 10 30.18 1021.9
06 22:56 NW 10 10.00 Overcast OVC013 21 17.1 85% 11 30.17 1021.8
06 21:56 NW 10 10.00 Overcast OVC013 21 17.1 26.1 21 85% 11 30.17 1021.6
06 20:56 N 9 10.00 Overcast OVC013 21.9 17.1 82% 13 30.16 1021.5
06 19:56 NW 10 10.00 Overcast OVC015 23 17.1 78% 13 30.16 1021.3
06 18:56 N 6 10.00 Overcast OVC015 24.1 18 77% 18 30.15 1021.0
06 17:56 NW 8 10.00 Overcast OVC015 24.1 17.1 75% 16 30.14 1020.6
06 16:56 NW 8 10.00 Overcast OVC015 24.1 16 71% 16 30.13 1020.4
06 15:56 NW 8 10.00 Mostly Cloudy BKN013 24.1 17.1 26.1 18 75% 16 30.12 1020.1
06 14:56 NW 9 10.00 Overcast BKN009 OVC050 25 19.9 81% 16 30.12 1020.0
06 13:56 NW 15 10.00 Overcast OVC007 21 19 92% 8 30.11 1019.8
06 12:56 NW 12 10.00 Overcast OVC003 21.9 19.9 92% 11 30.1 1019.4
06 11:56 W 12 8.00 Overcast OVC003 19.9 18 92% 9 30.09 1019.1
06 10:56 W 14 1.50 Light Snow Fog/Mist OVC003 19 17.1 92% 6 30.08 1018.7
06 09:56 W 10 5.00 Fog/Mist BKN003 OVC006 18 16 19 17.1 92% 7 30.08 1018.5
06 08:56 SW 8 10.00 Overcast OVC005 19 17.1 92% 10 30.07 1018.3
06 07:56 W 8 10.00 Overcast OVC005 18 17.1 96% 9 30.06 1018.0
06 06:56 W 8 10.00 Overcast OVC005 18 15.1 88% 9 30.06 1017.9
06 05:56 W 7 10.00 Overcast OVC007 17.1 15.1 92% 8 30.05 1017.7
06 04:56 W 10 10.00 Overcast OVC009 19 17.1 92% 8 30.04 1017.2
06 03:56 NW 7 10.00 Overcast OVC009 17.1 15.1 19.9 12.9 92% 8 30.03 1017.1
06 02:56 W 9 10.00 Mostly Cloudy BKN011 14 12 92% 3 30.03 1016.9
06 01:56 W 10 10.00 Fair CLR 14 12 92% 2 30.02 1016.7
06 00:56 W 8 10.00 Mostly Cloudy BKN050 17.1 15.1 92% 7 30.02 1016.5
05 23:56 W 8 10.00 Partly Cloudy SCT050 16 12.9 88% 6 30.01 1016.3
05 22:56 W 8 10.00 Fair CLR 19.9 16 85% 11 30.01 1016.2
05 21:56 NW 8 10.00 Fair CLR 23 19 27 23 85% 15 30 1016.0
05 20:56 NW 8 10.00 A Few Clouds FEW010 24.1 19.9 84% 16 30 1015.9
05 19:56 W 10 10.00 Overcast OVC012 26.1 21 81% 17 29.99 1015.6
05 18:56 NW 13 10.00 Mostly Cloudy BKN010 27 21 78% 17 29.99 1015.6
05 17:56 NW 12 10.00 Mostly Cloudy BKN008 26.1 21 81% 16 29.98 1015.3
05 16:56 NW 13 10.00 Mostly Cloudy BKN008 26.1 21 81% 16 29.98 1015.2
05 15:56 NW 15 10.00 Overcast OVC010 26.1 21 28 25 81% 15 29.97 1015.0
05 14:56 NW 14 10.00 Overcast BKN014 OVC019 26.1 19.9 78% 15 29.98 1015.1
05 13:56 NW 14 10.00 Overcast OVC018 27 21 78% 16 29.97 1014.9
05 12:56 NW 9 10.00 Overcast OVC016 27 21 78% 19 29.97 1014.9
05 11:56 NW 6 10.00 Overcast OVC016 26.1 19 75% 20 29.97 1014.9
05 10:56 NW 8 10.00 Overcast OVC014 25 19.9 81% 17 29.97 1014.9
05 09:56 W 8 10.00 Overcast OVC016 25 19.9 25 24.1 81% 17 29.97 1015.0
05 08:56 N 6 10.00 Overcast OVC016 25 19.9 81% 19 29.97 1014.9
05 07:56 N 7 10.00 Overcast OVC016 25 19.9 81% 18 29.97 1014.9
05 06:56 N 6 10.00 Overcast OVC014 25 21 85% 19 29.97 1014.9
05 05:56 W 7 10.00 Overcast OVC014 24.1 19.9 84% 17 29.97 1014.9
05 04:56 NW 7 10.00 Overcast OVC012 25 21 85% 18 29.97 1014.8
05 03:56 NW 6 10.00 Overcast OVC012 24.1 21 27 24.1 88% 18 29.98 1015.2
Date Time (akdt) Wind (mph) Vis. (mi.) Weather Sky Cond. Air Dwpt Max. Min. Relative Humidity Wind Chill (°F) Heat Index (°F) altimeter (in) sea level (mb) 1 hr 3 hr 6 hr
6 hour
Temperature (ºF) Pressure Precipitation (in)